Time;durP1;ratioP1;P1;durP2;ratioP2;P2;SDS_P1;SDS_P2;PMS_P1;PMS_P2;Temp;Humidity;BMP_temperature;BMP_pressure;BME280_temperature;BME280_humidity;BME280_pressure;Samples;Min_cycle;Max_cycle;Signal;HPM_P1;HPM_P2
2021/05/24 00:01:55;;;;;;;1.20;0.90;;;;;;;6.84;100.00;99170.16;10456383;28;20172;-73
2021/05/24 00:07:13;;;;;;;1.00;0.80;;;;;;;6.81;100.00;99168.94;10454783;28;20203;-73
2021/05/24 00:12:33;;;;;;;1.27;0.97;;;;;;;6.88;100.00;99174.50;10455160;28;20276;-73
2021/05/24 00:17:53;;;;;;;1.37;1.00;;;;;;;6.94;100.00;99161.28;10456055;28;20175;-77
2021/05/24 00:23:12;;;;;;;1.67;1.57;;;;;;;6.64;100.00;99165.97;10455095;28;20195;-73
2021/05/24 00:28:31;;;;;;;0.90;0.50;;;;;;;6.52;100.00;99160.75;10455410;28;20223;-74
2021/05/24 00:33:50;;;;;;;1.33;1.20;;;;;;;6.48;100.00;99151.72;10453351;28;20172;-73
2021/05/24 00:39:09;;;;;;;2.30;1.07;;;;;;;6.41;100.00;99141.50;10455647;28;20180;-74
2021/05/24 00:44:29;;;;;;;1.40;0.80;;;;;;;6.38;100.00;99125.81;10455513;28;20187;-73
2021/05/24 00:49:48;;;;;;;1.20;1.10;;;;;;;6.39;100.00;99112.94;10453807;28;20297;-74
2021/05/24 00:55:09;;;;;;;1.90;1.20;;;;;;;6.33;100.00;99107.03;10455203;28;20180;-74
2021/05/24 01:00:36;;;;;;;1.90;1.27;;;;;;;6.30;100.00;99112.44;10455289;28;20176;-75
2021/05/24 01:05:55;;;;;;;1.53;1.20;;;;;;;6.18;100.00;99112.66;10461750;28;20266;-76
2021/05/24 01:11:14;;;;;;;1.40;0.90;;;;;;;6.13;100.00;99106.75;10461173;28;20203;-75
2021/05/24 01:16:33;;;;;;;1.73;0.67;;;;;;;6.05;100.00;99097.69;10461567;28;20190;-74
2021/05/24 01:21:52;;;;;;;3.50;1.00;;;;;;;6.03;100.00;99088.25;10460941;28;20195;-77
2021/05/24 01:27:12;;;;;;;1.47;0.87;;;;;;;5.91;100.00;99075.59;10460817;28;20231;-73
2021/05/24 01:32:31;;;;;;;1.40;0.83;;;;;;;5.92;100.00;99081.88;10461482;28;20199;-76
2021/05/24 01:37:51;;;;;;;1.63;0.97;;;;;;;5.74;100.00;99086.25;10459532;28;20167;-76
2021/05/24 01:43:10;;;;;;;1.93;1.17;;;;;;;5.67;100.00;99081.47;10460567;28;20226;-75
2021/05/24 01:48:34;;;;;;;1.40;1.30;;;;;;;5.70;100.00;99072.56;10459870;28;20210;-74
2021/05/24 01:53:53;;;;;;;1.43;1.33;;;;;;;5.62;100.00;99067.34;10461188;28;20630;-76
2021/05/24 01:59:13;;;;;;;1.90;1.30;;;;;;;5.59;100.00;99054.44;10460026;28;20180;-76
2021/05/24 02:04:32;;;;;;;0.90;0.60;;;;;;;5.52;100.00;99054.34;10459560;28;20184;-74
2021/05/24 02:09:51;;;;;;;2.50;1.07;;;;;;;5.58;100.00;99052.88;10460099;28;20211;-72
2021/05/24 02:15:13;;;;;;;3.60;1.30;;;;;;;5.39;100.00;99052.19;10459364;28;20175;-72
2021/05/24 02:20:34;;;;;;;1.07;0.87;;;;;;;5.25;100.00;99066.38;10457766;28;20203;-73
2021/05/24 02:25:53;;;;;;;1.00;0.80;;;;;;;5.23;100.00;99051.53;10458888;28;20622;-75
2021/05/24 02:31:12;;;;;;;1.30;1.10;;;;;;;5.14;100.00;99034.63;10458793;28;20306;-72
2021/05/24 02:36:32;;;;;;;1.90;1.00;;;;;;;5.06;100.00;99041.13;10458267;28;20180;-73
2021/05/24 02:41:52;;;;;;;1.20;0.97;;;;;;;5.09;100.00;99024.03;10459349;28;20183;-73
2021/05/24 02:47:11;;;;;;;1.37;0.83;;;;;;;5.15;100.00;99017.13;10458913;28;20649;-72
2021/05/24 02:52:29;;;;;;;2.37;1.90;;;;;;;5.15;100.00;99011.66;10456618;28;20252;-72
2021/05/24 02:57:48;;;;;;;1.00;0.70;;;;;;;5.08;100.00;99022.47;10458574;28;20179;-74
2021/05/24 03:03:08;;;;;;;1.00;0.90;;;;;;;4.94;100.00;99011.28;10457535;28;20172;-74
2021/05/24 03:08:28;;;;;;;1.33;0.93;;;;;;;4.99;100.00;99017.22;10456958;28;20207;-74
2021/05/24 03:13:46;;;;;;;1.77;1.63;;;;;;;4.77;100.00;99003.59;10458074;28;20172;-75
2021/05/24 03:19:06;;;;;;;1.30;1.10;;;;;;;4.69;100.00;98988.28;10456339;28;20203;-76
2021/05/24 03:24:25;;;;;;;1.07;0.97;;;;;;;4.68;100.00;99000.34;10457121;28;20175;-76
2021/05/24 03:29:44;;;;;;;1.20;0.97;;;;;;;4.67;100.00;98996.03;10455743;28;20243;-74
2021/05/24 03:35:03;;;;;;;4.53;1.40;;;;;;;4.71;100.00;99007.78;10456221;28;20251;-76
2021/05/24 03:40:22;;;;;;;1.17;1.07;;;;;;;4.81;100.00;99001.75;10456183;28;20643;-75
2021/05/24 03:45:41;;;;;;;1.90;1.60;;;;;;;4.91;100.00;99010.09;10456911;28;20533;-75
2021/05/24 03:51:01;;;;;;;2.97;1.67;;;;;;;4.85;100.00;99002.56;10455004;28;20207;-75
2021/05/24 03:56:20;;;;;;;1.20;1.03;;;;;;;4.91;100.00;98998.41;10455393;28;20175;-75
2021/05/24 04:01:40;;;;;;;0.90;0.70;;;;;;;5.14;100.00;99010.84;10456498;28;20179;-76
2021/05/24 04:07:01;;;;;;;1.90;1.67;;;;;;;5.19;100.00;98996.94;10454801;28;20195;-74
2021/05/24 04:12:20;;;;;;;1.47;1.00;;;;;;;5.29;100.00;98996.28;10455128;28;20175;-75
2021/05/24 04:17:41;;;;;;;3.10;1.87;;;;;;;5.41;100.00;98998.06;10455988;28;20246;-77
2021/05/24 04:23:00;;;;;;;2.33;1.67;;;;;;;5.46;100.00;98995.00;10454623;28;20697;-76
2021/05/24 04:28:19;;;;;;;1.83;0.90;;;;;;;5.52;100.00;99003.28;10455572;28;20227;-75
2021/05/24 04:33:38;;;;;;;1.00;0.80;;;;;;;5.61;100.00;99006.53;10453407;28;21116;-75
2021/05/24 04:38:57;;;;;;;2.37;1.90;;;;;;;5.78;100.00;99007.94;10460658;28;20175;-76
2021/05/24 04:44:19;;;;;;;2.40;1.83;;;;;;;5.99;100.00;99003.56;10463825;28;20175;-75
2021/05/24 04:49:38;;;;;;;1.10;1.00;;;;;;;6.31;100.00;98999.28;10462137;28;20207;-74
2021/05/24 04:54:57;;;;;;;2.07;1.57;;;;;;;6.67;100.00;98995.78;10463499;28;20179;-77
2021/05/24 05:00:16;;;;;;;1.30;1.20;;;;;;;6.94;100.00;98994.47;10462264;28;20171;-74
2021/05/24 05:05:36;;;;;;;4.57;2.20;;;;;;;7.11;100.00;98984.44;10461863;28;20947;-75
2021/05/24 05:10:55;;;;;;;1.57;0.97;;;;;;;7.30;100.00;99000.63;10462167;28;20207;-73
2021/05/24 05:16:14;;;;;;;1.20;1.10;;;;;;;7.54;100.00;98994.53;10461661;28;20176;-77
2021/05/24 05:21:34;;;;;;;1.50;1.40;;;;;;;7.75;100.00;98993.91;10461078;28;20203;-76
2021/05/24 05:26:54;;;;;;;1.50;1.20;;;;;;;7.93;100.00;98979.13;10462008;28;20223;-74
2021/05/24 05:32:13;;;;;;;2.30;2.20;;;;;;;8.11;100.00;98971.78;10461960;28;20175;-74
2021/05/24 05:37:32;;;;;;;2.00;1.70;;;;;;;8.35;100.00;98968.38;10474112;28;20554;-74
2021/05/24 05:42:51;;;;;;;1.53;1.40;;;;;;;8.58;100.00;98974.28;10490991;28;20174;-74
2021/05/24 05:48:11;;;;;;;1.93;1.37;;;;;;;8.85;100.00;98957.91;10502150;28;20209;-77
2021/05/24 05:53:32;;;;;;;4.20;1.43;;;;;;;9.11;100.00;98954.78;10502602;28;20523;-76
2021/05/24 05:58:51;;;;;;;1.50;1.40;;;;;;;9.30;100.00;98948.88;10502494;28;20179;-73
2021/05/24 06:04:10;;;;;;;2.33;1.50;;;;;;;9.51;100.00;98948.84;10500906;28;20249;-74
2021/05/24 06:09:29;;;;;;;1.60;1.50;;;;;;;9.71;100.00;98942.53;10501673;28;20195;-75
2021/05/24 06:14:48;;;;;;;3.83;2.53;;;;;;;10.08;100.00;98939.28;10501723;28;20171;-77
2021/05/24 06:20:08;;;;;;;2.60;1.83;;;;;;;10.25;100.00;98939.19;10500261;28;20191;-76
2021/05/24 06:25:27;;;;;;;2.73;1.50;;;;;;;10.59;100.00;98946.47;10500507;28;20265;-75
2021/05/24 06:30:46;;;;;;;1.40;1.30;;;;;;;11.01;100.00;98937.16;10500478;28;20229;-75
2021/05/24 06:36:05;;;;;;;1.23;1.13;;;;;;;11.20;100.00;98929.88;10499780;28;20530;-74
2021/05/24 06:41:24;;;;;;;1.73;1.57;;;;;;;11.49;100.00;98927.66;10500698;28;20170;-74
2021/05/24 06:46:43;;;;;;;2.13;1.20;;;;;;;11.66;100.00;98922.00;10500631;28;20171;-75
2021/05/24 06:52:03;;;;;;;1.80;1.70;;;;;;;11.91;100.00;98927.22;10498816;28;20174;-74
2021/05/24 06:57:23;;;;;;;2.00;1.80;;;;;;;12.31;100.00;98916.09;10500245;28;20178;-77
2021/05/24 07:02:42;;;;;;;4.30;1.63;;;;;;;12.51;100.00;98903.97;10499115;28;20256;-74
2021/05/24 07:08:02;;;;;;;2.07;1.87;;;;;;;12.72;100.00;98900.91;10497068;28;20214;-77
2021/05/24 07:13:21;;;;;;;1.13;1.03;;;;;;;12.93;100.00;98900.56;10498509;28;20187;-75
2021/05/24 07:18:39;;;;;;;1.27;1.13;;;;;;;13.10;100.00;98903.06;10496781;28;20199;-75
2021/05/24 07:23:58;;;;;;;1.40;1.20;;;;;;;13.44;100.00;98897.34;10498156;28;20183;-75
2021/05/24 07:29:17;;;;;;;1.67;1.47;;;;;;;13.76;100.00;98899.09;10497182;28;20237;-75
2021/05/24 07:34:38;;;;;;;1.53;1.00;;;;;;;14.18;100.00;98889.16;10497384;28;20183;-74
2021/05/24 07:39:57;;;;;;;1.80;1.47;;;;;;;14.58;94.94;98877.59;10498341;28;20700;-75
2021/05/24 07:45:16;;;;;;;2.90;1.40;;;;;;;14.92;92.72;98875.97;10498417;28;20175;-75
2021/05/24 07:50:35;;;;;;;1.80;1.70;;;;;;;15.32;94.09;98855.97;10496418;28;20206;-74
2021/05/24 07:55:54;;;;;;;1.40;1.20;;;;;;;16.05;87.78;98853.91;10498057;28;20535;-73
2021/05/24 08:01:13;;;;;;;3.43;1.27;;;;;;;17.11;68.61;98846.59;10511271;28;20186;-77
2021/05/24 08:06:32;;;;;;;4.13;1.47;;;;;;;17.58;65.58;98836.25;10495523;28;20188;-73
2021/05/24 08:11:52;;;;;;;1.77;1.47;;;;;;;18.45;61.55;98842.13;10496556;28;20186;-77
2021/05/24 08:17:12;;;;;;;1.30;1.07;;;;;;;19.09;60.08;98835.53;10497441;28;20198;-74
2021/05/24 08:22:31;;;;;;;2.20;1.20;;;;;;;19.01;54.99;98842.63;10495207;28;20175;-75
2021/05/24 08:27:51;;;;;;;1.20;0.90;;;;;;;19.33;56.59;98838.09;10496826;28;20272;-73
2021/05/24 08:33:10;;;;;;;1.00;0.63;;;;;;;19.20;53.06;98833.88;10497402;28;20629;-74
2021/05/24 08:38:31;;;;;;;1.10;0.90;;;;;;;19.42;53.75;98812.19;10510686;28;20171;-74
2021/05/24 08:43:49;;;;;;;1.23;0.83;;;;;;;19.35;50.93;98801.34;10496682;28;20178;-74
2021/05/24 08:49:12;;;;;;;1.00;0.70;;;;;;;19.88;52.11;98783.78;10496146;28;20206;-77
2021/05/24 08:54:35;;;;;;;1.30;0.83;;;;;;;20.53;47.70;98773.50;10496245;28;20265;-74
2021/05/24 08:59:54;;;;;;;1.20;0.80;;;;;;;20.69;47.29;98775.91;10497759;28;20163;-74
2021/05/24 09:05:14;;;;;;;1.00;0.80;;;;;;;20.89;47.26;98767.75;10495079;28;20204;-76
2021/05/24 09:10:36;;;;;;;1.00;0.60;;;;;;;20.37;45.86;98761.94;10496192;28;20226;-74
2021/05/24 09:15:55;;;;;;;1.20;1.00;;;;;;;20.23;45.40;98754.25;10497005;28;20172;-74
2021/05/24 09:21:14;;;;;;;1.63;0.70;;;;;;;20.03;46.09;98740.78;10493872;28;20175;-78
2021/05/24 09:26:35;;;;;;;1.00;0.70;;;;;;;20.74;44.76;98726.94;10503747;28;20175;-74
2021/05/24 09:32:11;;;;;;;1.10;0.97;;;;;;;21.37;43.78;98718.91;10503040;28;20175;-75
2021/05/24 09:37:32;;;;;;;2.57;0.70;;;;;;;21.52;42.33;98703.69;10502081;28;20185;-75
2021/05/24 09:42:54;;;;;;;1.17;0.77;;;;;;;21.98;42.01;98713.16;10503354;28;20175;-77
2021/05/24 09:48:12;;;;;;;1.00;0.60;;;;;;;21.90;41.45;98690.38;10499743;28;20207;-75
2021/05/24 09:53:31;;;;;;;0.90;0.60;;;;;;;21.76;42.47;98688.34;10501843;28;20179;-74
2021/05/24 09:59:10;;;;;;;1.17;1.07;;;;;;;21.42;40.85;98670.63;10486106;28;20187;-78
2021/05/24 10:04:35;;;;;;;1.20;1.10;;;;;;;22.02;41.12;98669.69;10474091;28;20641;-78
2021/05/24 10:09:54;;;;;;;1.10;0.73;;;;;;;21.50;43.05;98657.81;10481970;28;20211;-78
2021/05/24 10:15:15;;;;;;;1.20;1.00;;;;;;;21.73;43.35;98652.91;10485827;28;20182;-77
2021/05/24 10:20:35;;;;;;;1.30;0.90;;;;;;;22.51;41.50;98647.28;10477375;28;20210;-78
2021/05/24 10:25:57;;;;;;;1.03;0.67;;;;;;;23.66;39.63;98638.16;10494305;28;20187;-78
2021/05/24 10:31:29;;;;;;;1.40;0.80;;;;;;;23.90;39.85;98629.41;10479106;28;20689;-78
2021/05/24 10:37:13;;;;;;;1.00;0.60;;;;;;;23.65;38.25;98636.59;10477482;28;20222;-78
2021/05/24 10:42:42;;;;;;;0.90;0.60;;;;;;;24.02;36.52;98640.25;10464363;28;20178;-79
2021/05/24 10:48:01;;;;;;;1.30;0.60;;;;;;;20.89;43.59;98639.13;10469811;28;20649;-78
2021/05/24 10:53:24;;;;;;;1.10;0.93;;;;;;;21.55;41.92;98640.38;10480274;28;20179;-77
2021/05/24 10:58:43;;;;;;;1.00;0.60;;;;;;;22.31;42.11;98624.03;10475606;28;20199;-79
2021/05/24 11:04:10;;;;;;;1.10;0.80;;;;;;;21.91;40.92;98623.94;10476990;28;20167;-77
2021/05/24 11:09:39;;;;;;;1.40;0.60;;;;;;;21.97;42.26;98619.19;10481034;28;20230;-77
2021/05/24 11:15:08;;;;;;;1.30;0.80;;;;;;;23.12;41.60;98601.09;10466564;28;20183;-79
2021/05/24 11:20:30;;;;;;;2.17;2.00;;;;;;;23.27;40.98;98590.53;10480744;28;20210;-80
2021/05/24 11:25:53;;;;;;;0.93;0.70;;;;;;;23.36;38.50;98591.16;10499034;28;20175;-81
2021/05/24 11:31:21;;;;;;;1.00;0.70;;;;;;;22.36;39.55;98587.69;10496891;28;20214;-79
2021/05/24 11:36:40;;;;;;;1.40;1.20;;;;;;;22.85;39.75;98581.91;10497482;28;20175;-79
2021/05/24 11:42:09;;;;;;;1.00;0.70;;;;;;;23.38;38.82;98554.94;10498170;28;20629;-79
2021/05/24 11:47:29;;;;;;;1.20;0.80;;;;;;;23.06;38.58;98550.53;10497620;28;20574;-77
2021/05/24 11:52:48;;;;;;;1.00;0.80;;;;;;;22.10;41.41;98539.16;10496744;28;20210;-79
2021/05/24 11:58:11;;;;;;;1.00;0.60;;;;;;;21.77;41.50;98546.31;10497560;28;20206;-80
2021/05/24 12:03:30;;;;;;;1.00;0.70;;;;;;;21.72;40.80;98547.00;10495450;28;20178;-79
2021/05/24 12:08:51;;;;;;;1.10;0.80;;;;;;;21.29;42.84;98541.44;10497483;28;20167;-81
2021/05/24 12:14:11;;;;;;;1.00;0.63;;;;;;;21.59;43.42;98538.16;10496442;28;20179;-80
2021/05/24 12:19:30;;;;;;;1.20;0.90;;;;;;;21.63;42.10;98524.72;10491235;28;20234;-78
2021/05/24 12:24:50;;;;;;;0.97;0.67;;;;;;;22.40;42.03;98512.56;10457101;28;20183;-79
2021/05/24 12:30:17;;;;;;;1.30;1.17;;;;;;;23.29;39.58;98513.00;10481584;28;20689;-80
2021/05/24 12:35:39;;;;;;;1.00;0.73;;;;;;;23.62;37.33;98494.34;10463885;28;20179;-78
2021/05/24 12:41:03;;;;;;;0.90;0.60;;;;;;;22.86;39.03;98490.88;10462368;28;20765;-80
2021/05/24 12:46:22;;;;;;;3.33;0.60;;;;;;;22.94;39.13;98480.78;10494655;28;20190;-78
2021/05/24 12:51:42;;;;;;;0.90;0.60;;;;;;;22.65;39.44;98473.34;10477964;28;20187;-79
2021/05/24 12:57:01;;;;;;;1.00;0.60;;;;;;;23.94;37.82;98450.91;10473588;28;20186;-81
2021/05/24 13:02:29;;;;;;;1.00;0.70;;;;;;;23.11;36.78;98453.63;10467551;28;20214;-81
2021/05/24 13:07:53;;;;;;;1.30;0.83;;;;;;;23.38;37.89;98449.00;10478337;28;20641;-79
2021/05/24 13:13:22;;;;;;;1.83;0.83;;;;;;;24.89;34.84;98445.06;10477680;28;20187;-79
2021/05/24 13:29:30;;;;;;;1.37;0.80;;;;;;;24.44;35.75;98435.00;10502858;28;20218;-76
2021/05/24 13:34:50;;;;;;;1.53;0.80;;;;;;;24.90;35.44;98432.53;10501807;28;20174;-76
2021/05/24 13:40:09;;;;;;;1.00;0.70;;;;;;;24.40;36.59;98431.63;10502608;28;20633;-75
2021/05/24 13:45:28;;;;;;;1.00;0.63;;;;;;;25.05;34.89;98422.56;10502769;28;20170;-75
2021/05/24 13:50:47;;;;;;;1.00;0.70;;;;;;;24.36;34.64;98414.25;10501332;28;20166;-75
2021/05/24 13:56:06;;;;;;;1.00;0.60;;;;;;;24.18;36.07;98406.28;10502440;28;20178;-74
2021/05/24 14:01:26;;;;;;;1.20;0.80;;;;;;;23.93;35.91;98404.41;10501626;28;20207;-74
2021/05/24 14:06:47;;;;;;;0.97;0.57;;;;;;;23.45;36.34;98412.03;10500863;28;20175;-78
2021/05/24 14:12:07;;;;;;;1.00;0.60;;;;;;;22.88;38.25;98407.78;10501458;28;20179;-76
2021/05/24 14:17:26;;;;;;;1.10;0.60;;;;;;;22.42;37.49;98403.53;10500471;28;20281;-77
2021/05/24 14:22:45;;;;;;;1.10;0.63;;;;;;;21.30;41.72;98400.28;10500452;28;20249;-77
2021/05/24 14:28:05;;;;;;;0.90;0.50;;;;;;;21.75;38.59;98392.78;10501105;28;20260;-75
2021/05/24 14:33:24;;;;;;;1.00;0.60;;;;;;;21.54;38.99;98387.66;10499977;28;20265;-80
2021/05/24 14:38:43;;;;;;;2.17;0.60;;;;;;;21.28;39.64;98394.41;10500566;28;20289;-77
2021/05/24 14:44:03;;;;;;;1.10;0.70;;;;;;;21.32;39.93;98395.00;10500846;28;20649;-76
2021/05/24 14:49:22;;;;;;;1.00;0.50;;;;;;;21.57;40.44;98391.53;10499305;28;20854;-76
2021/05/24 14:54:41;;;;;;;1.10;0.70;;;;;;;21.44;41.40;98388.28;10500453;28;20167;-76
2021/05/24 15:00:00;;;;;;;3.73;0.87;;;;;;;21.49;41.33;98384.75;10499603;28;20565;-75
2021/05/24 15:05:19;;;;;;;1.00;0.70;;;;;;;21.55;40.99;98383.63;10512020;28;20167;-76
2021/05/24 15:10:38;;;;;;;1.30;0.50;;;;;;;21.88;40.02;98384.81;10498544;28;20561;-80
2021/05/24 15:15:57;;;;;;;2.33;0.63;;;;;;;22.09;39.27;98393.97;10512762;28;20648;-79
2021/05/24 15:21:16;;;;;;;1.20;0.70;;;;;;;21.81;39.57;98390.81;10495841;28;20199;-78
2021/05/24 15:26:35;;;;;;;1.00;0.50;;;;;;;21.54;39.13;98381.28;10497896;28;20170;-76
2021/05/24 15:31:55;;;;;;;1.10;0.73;;;;;;;21.72;39.02;98373.41;10499063;28;20182;-80
2021/05/24 15:37:14;;;;;;;1.00;0.87;;;;;;;22.17;37.92;98373.44;10497429;28;20208;-78
2021/05/24 15:42:34;;;;;;;1.10;0.60;;;;;;;22.37;37.42;98359.41;10498567;28;20548;-79
2021/05/24 15:47:53;;;;;;;1.00;0.60;;;;;;;21.86;38.29;98359.34;10498387;28;20171;-79
2021/05/24 15:53:12;;;;;;;0.90;0.50;;;;;;;21.33;37.97;98358.13;10496919;28;20557;-76
2021/05/24 15:58:36;;;;;;;0.90;0.50;;;;;;;21.14;39.36;98356.06;10497733;28;20214;-76
2021/05/24 16:03:56;;;;;;;1.47;0.77;;;;;;;21.22;39.83;98343.97;10496694;28;20174;-75
2021/05/24 16:09:16;;;;;;;0.97;0.60;;;;;;;20.96;39.34;98359.84;10497764;28;20182;-75
2021/05/24 16:14:35;;;;;;;0.90;0.67;;;;;;;20.75;47.42;98357.47;10497501;28;20198;-75
2021/05/24 16:19:55;;;;;;;1.00;0.60;;;;;;;20.52;51.40;98355.53;10496033;28;20206;-76
2021/05/24 16:30:52;;;;;;;1.00;0.60;;;;;;;20.50;51.28;98349.69;10496704;28;20226;-75
2021/05/24 16:36:12;;;;;;;1.07;0.73;;;;;;;20.29;53.07;98353.63;10503653;28;20179;-76
2021/05/24 16:41:31;;;;;;;1.10;0.80;;;;;;;19.96;55.29;98357.06;10505230;28;20210;-76
2021/05/24 16:46:50;;;;;;;2.17;1.40;;;;;;;19.80;56.55;98368.63;10505611;28;20171;-77
2021/05/24 16:52:08;;;;;;;1.40;0.73;;;;;;;19.46;57.82;98360.84;10502794;28;20524;-75
2021/05/24 16:57:27;;;;;;;1.43;1.30;;;;;;;19.22;58.46;98351.72;10505019;28;20615;-74
2021/05/24 17:02:47;;;;;;;2.30;2.03;;;;;;;19.06;59.43;98371.59;10503788;28;20202;-75
2021/05/24 17:08:08;;;;;;;5.73;1.60;;;;;;;18.29;57.27;98402.38;10502391;28;20174;-76
2021/05/24 17:13:28;;;;;;;1.30;0.90;;;;;;;17.69;57.02;98432.03;10517396;28;20175;-76
2021/05/24 17:18:47;;;;;;;1.10;0.90;;;;;;;16.96;61.51;98465.59;10502661;28;20202;-75
2021/05/24 17:24:06;;;;;;;1.20;0.70;;;;;;;16.73;64.02;98481.22;10503903;28;20187;-73
2021/05/24 17:29:26;;;;;;;0.90;0.60;;;;;;;16.40;63.49;98488.41;10502218;28;20219;-75
2021/05/24 17:34:45;;;;;;;1.30;1.17;;;;;;;16.37;62.32;98503.19;10502342;28;20171;-75
2021/05/24 17:40:10;;;;;;;1.10;0.87;;;;;;;15.76;66.04;98532.66;10502918;28;20202;-74
2021/05/24 17:45:29;;;;;;;1.63;1.23;;;;;;;15.29;71.22;98521.50;10502370;28;20179;-77
2021/05/24 17:56:26;;;;;;;3.27;0.90;;;;;;;14.80;75.80;98530.53;10502151;28;20175;-75
2021/05/24 18:01:46;;;;;;;1.73;1.63;;;;;;;14.85;75.44;98531.97;10500834;28;20206;-76
2021/05/24 18:07:05;;;;;;;1.27;1.00;;;;;;;14.83;71.20;98535.16;10500168;28;20174;-75
2021/05/24 18:12:24;;;;;;;1.63;1.07;;;;;;;14.62;71.14;98518.38;10501137;28;20183;-76
2021/05/24 18:17:44;;;;;;;1.47;0.80;;;;;;;14.68;70.91;98522.19;10515002;28;20661;-75
2021/05/24 18:23:05;;;;;;;1.27;0.93;;;;;;;14.59;69.29;98525.59;10500593;28;20171;-76
2021/05/24 18:28:25;;;;;;;1.83;1.23;;;;;;;14.55;69.04;98526.91;10501128;28;20222;-76
2021/05/24 18:33:46;;;;;;;1.03;0.80;;;;;;;14.51;70.05;98540.84;10500160;28;20188;-76
2021/05/24 18:39:07;;;;;;;4.53;2.70;;;;;;;14.46;71.47;98543.38;10499774;28;20293;-75
2021/05/24 18:44:26;;;;;;;1.10;0.80;;;;;;;14.15;73.89;98533.19;10500847;28;20175;-76
2021/05/24 18:49:45;;;;;;;1.00;0.60;;;;;;;14.13;74.35;98530.88;10499367;28;20183;-76
2021/05/24 18:55:10;;;;;;;1.20;1.07;;;;;;;14.15;75.41;98539.47;10499386;28;20187;-75
2021/05/24 19:00:30;;;;;;;0.90;0.60;;;;;;;14.18;75.71;98533.09;10498836;28;20206;-77
2021/05/24 19:06:07;;;;;;;1.97;1.63;;;;;;;14.07;75.86;98549.16;10497581;28;20182;-75
2021/05/24 19:11:28;;;;;;;1.57;0.80;;;;;;;13.96;76.56;98562.50;10513006;28;20179;-75
2021/05/24 19:16:47;;;;;;;3.30;1.17;;;;;;;13.85;78.09;98570.25;10499369;28;20229;-75
2021/05/24 19:22:06;;;;;;;1.20;1.00;;;;;;;13.83;78.71;98583.75;10496519;28;20218;-75
2021/05/24 19:27:25;;;;;;;1.53;0.70;;;;;;;13.73;80.39;98590.28;10497745;28;20581;-76
2021/05/24 19:32:44;;;;;;;3.00;1.17;;;;;;;13.73;80.82;98601.34;10498880;28;20183;-74
2021/05/24 19:38:04;;;;;;;2.27;1.00;;;;;;;13.79;81.70;98596.88;10497318;28;20198;-74
2021/05/24 19:43:22;;;;;;;2.70;1.00;;;;;;;13.64;82.59;98595.69;10497515;28;20163;-74
2021/05/24 20:28:06;;;;;;;3.10;1.20;;;;;;;13.61;93.77;98653.78;10497134;28;20246;-76
2021/05/24 20:33:26;;;;;;;3.23;1.67;;;;;;;13.42;100.00;98642.78;10494296;28;20205;-76
2021/05/24 20:38:46;;;;;;;2.20;1.60;;;;;;;13.39;100.00;98621.53;10495926;28;20210;-75
2021/05/24 20:44:07;;;;;;;1.43;1.17;;;;;;;13.39;100.00;98635.34;10495914;28;20196;-74
2021/05/24 20:49:26;;;;;;;3.50;1.20;;;;;;;13.17;100.00;98639.75;10495672;28;20171;-73
2021/05/24 20:54:45;;;;;;;3.40;1.57;;;;;;;13.09;100.00;98627.31;10496703;28;20182;-75
2021/05/24 21:00:07;;;;;;;1.30;1.07;;;;;;;13.05;100.00;98621.84;10496385;28;20218;-74
2021/05/24 21:05:27;;;;;;;1.30;1.20;;;;;;;12.97;100.00;98634.25;10494348;28;20629;-74
2021/05/24 21:10:47;;;;;;;4.47;2.20;;;;;;;13.10;100.00;98618.63;10495502;28;20625;-74
2021/05/24 21:16:06;;;;;;;1.50;1.07;;;;;;;13.12;100.00;98627.25;10496308;28;20685;-74
2021/05/24 21:21:25;;;;;;;12.20;5.03;;;;;;;12.78;100.00;98635.03;10498698;28;20301;-75
2021/05/24 21:26:44;;;;;;;3.20;1.90;;;;;;;12.72;100.00;98641.44;10503698;28;20210;-74
2021/05/24 21:32:04;;;;;;;1.40;1.20;;;;;;;12.60;100.00;98655.09;10503605;28;20187;-76
2021/05/24 21:37:23;;;;;;;4.73;1.07;;;;;;;12.41;100.00;98662.16;10502058;28;20190;-74
2021/05/24 21:42:42;;;;;;;2.20;1.50;;;;;;;12.09;100.00;98702.47;10503344;28;20198;-76
2021/05/24 21:48:01;;;;;;;1.50;1.30;;;;;;;11.71;100.00;98694.81;10503060;28;20694;-74
2021/05/24 21:53:21;;;;;;;0.93;0.67;;;;;;;11.58;100.00;98688.28;10500735;28;20171;-74
2021/05/24 21:58:41;;;;;;;1.20;0.60;;;;;;;11.49;100.00;98691.56;10502681;28;20669;-76
2021/05/24 22:04:00;;;;;;;2.27;0.80;;;;;;;11.46;100.00;98670.34;10501307;28;20198;-77
2021/05/24 22:09:19;;;;;;;2.80;1.13;;;;;;;11.47;100.00;98646.34;10502187;28;20206;-74
2021/05/24 22:14:37;;;;;;;1.10;0.60;;;;;;;11.48;100.00;98661.66;10515356;28;20688;-76
2021/05/24 22:19:58;;;;;;;1.83;0.60;;;;;;;11.25;100.00;98661.56;10500105;28;20664;-74
2021/05/24 22:25:19;;;;;;;1.00;0.53;;;;;;;11.11;100.00;98656.25;10500700;28;20187;-74
2021/05/24 22:30:38;;;;;;;1.20;0.60;;;;;;;11.01;100.00;98665.41;10500486;28;20254;-74
2021/05/24 22:35:58;;;;;;;0.90;0.50;;;;;;;10.87;100.00;98662.84;10500030;28;20175;-74
2021/05/24 22:41:17;;;;;;;1.07;0.70;;;;;;;10.85;100.00;98678.97;10500533;28;20696;-74
2021/05/24 22:46:36;;;;;;;1.47;1.00;;;;;;;10.68;100.00;98688.22;10500895;28;20174;-74
2021/05/24 22:51:55;;;;;;;1.13;0.60;;;;;;;10.58;100.00;98707.56;10499348;28;20170;-74
2021/05/24 22:57:14;;;;;;;1.00;0.60;;;;;;;10.59;100.00;98723.66;10499339;28;20182;-73
2021/05/24 23:02:34;;;;;;;1.07;0.60;;;;;;;10.55;100.00;98722.94;10499199;28;20226;-73
2021/05/24 23:07:53;;;;;;;1.10;0.83;;;;;;;10.52;100.00;98726.50;10497597;28;20174;-74
2021/05/24 23:13:12;;;;;;;1.10;0.80;;;;;;;10.51;100.00;98729.66;10499678;28;20183;-74
2021/05/24 23:18:31;;;;;;;1.00;0.60;;;;;;;10.57;100.00;98731.56;10498024;28;20250;-73
2021/05/24 23:23:51;;;;;;;1.20;0.50;;;;;;;10.52;100.00;98720.22;10499354;28;20645;-74
2021/05/24 23:29:09;;;;;;;1.00;0.80;;;;;;;10.53;100.00;98719.78;10498520;28;20634;-73
2021/05/24 23:34:28;;;;;;;0.90;0.63;;;;;;;10.53;100.00;98706.03;10496519;28;20170;-76
2021/05/24 23:39:47;;;;;;;0.90;0.57;;;;;;;10.58;100.00;98727.59;10497329;28;20206;-76
2021/05/24 23:45:08;;;;;;;1.47;0.90;;;;;;;10.53;100.00;98717.06;10496992;28;20265;-76
2021/05/24 23:50:27;;;;;;;1.20;0.67;;;;;;;10.59;100.00;98726.41;10497008;28;20263;-76
2021/05/24 23:55:46;;;;;;;9.87;0.83;;;;;;;10.59;100.00;98750.41;10497044;28;20171;-74
